Time;durP1;ratioP1;P1;durP2;ratioP2;P2;SDS_P1;SDS_P2;PMS_P1;PMS_P2;Temp;Humidity;BMP_temperature;BMP_pressure;BME280_temperature;BME280_humidity;BME280_pressure;Samples;Min_cycle;Max_cycle;Signal;HPM_P1;HPM_P2
2023/06/14 00:00:11;;;;;;;;;;;16.50;94.40;;;;;;5073893;28;19929;-82
2023/06/14 00:02:39;;;;;;;;;;;16.40;94.80;;;;;;5063068;28;19924;-82
2023/06/14 00:05:05;;;;;;;;;;;16.30;94.70;;;;;;5083411;28;19936;-82
2023/06/14 00:07:35;;;;;;;;;;;16.30;94.70;;;;;;5082778;28;20507;-82
2023/06/14 00:10:01;;;;;;;;;;;16.30;94.80;;;;;;5090493;28;20404;-82
2023/06/14 00:12:26;;;;;;;;;;;16.20;94.90;;;;;;5086042;28;19928;-83
2023/06/14 00:14:52;;;;;;;;;;;16.10;95.00;;;;;;5094213;28;19924;-82
2023/06/14 00:17:18;;;;;;;;;;;16.00;95.50;;;;;;5063928;28;19964;-83
2023/06/14 00:19:43;;;;;;;;;;;16.00;95.60;;;;;;5086143;28;20031;-83
2023/06/14 00:22:09;;;;;;;;;;;16.10;96.00;;;;;;5090265;28;20435;-82
2023/06/14 00:24:35;;;;;;;;;;;16.00;95.90;;;;;;5083578;28;20559;-82
2023/06/14 00:27:00;;;;;;;;;;;16.00;96.60;;;;;;5098616;28;19927;-82
2023/06/14 00:29:26;;;;;;;;;;;16.00;96.50;;;;;;5090047;28;19939;-82
2023/06/14 00:31:51;;;;;;;;;;;16.00;96.60;;;;;;5089340;28;20301;-82
2023/06/14 00:34:17;;;;;;;;;;;15.90;97.00;;;;;;5091513;28;20328;-82
2023/06/14 00:36:42;;;;;;;;;;;15.80;97.50;;;;;;5089689;28;20038;-82
2023/06/14 00:39:09;;;;;;;;;;;15.80;97.60;;;;;;5094477;28;19971;-83
2023/06/14 00:41:35;;;;;;;;;;;15.70;97.80;;;;;;5088352;28;20304;-82
2023/06/14 00:44:00;;;;;;;;;;;15.70;97.70;;;;;;5089806;28;20022;-82
2023/06/14 00:46:26;;;;;;;;;;;15.70;98.40;;;;;;5092546;28;20046;-82
2023/06/14 00:48:52;;;;;;;;;;;15.60;98.10;;;;;;5089519;28;20389;-82
2023/06/14 00:51:17;;;;;;;;;;;15.60;98.50;;;;;;5089986;28;19974;-83
2023/06/14 00:53:46;;;;;;;;;;;15.60;98.80;;;;;;5086483;28;19928;-82
2023/06/14 00:56:13;;;;;;;;;;;15.60;98.60;;;;;;5088035;28;19938;-82
2023/06/14 00:58:39;;;;;;;;;;;15.50;99.40;;;;;;5096347;28;19927;-82
2023/06/14 01:01:04;;;;;;;;;;;15.50;99.40;;;;;;5090148;28;19928;-82
2023/06/14 01:03:31;;;;;;;;;;;15.60;99.90;;;;;;5098552;28;20411;-82
2023/06/14 01:06:14;;;;;;;;;;;15.50;99.90;;;;;;5092101;28;20415;-82
2023/06/14 01:08:51;;;;;;;;;;;15.40;99.90;;;;;;5097278;28;19927;-82
2023/06/14 01:11:21;;;;;;;;;;;15.40;99.90;;;;;;5099219;28;20301;-82
2023/06/14 01:13:46;;;;;;;;;;;15.30;99.90;;;;;;5090402;28;19932;-83
2023/06/14 01:16:12;;;;;;;;;;;15.30;99.90;;;;;;5096459;28;19927;-82
2023/06/14 01:18:38;;;;;;;;;;;15.30;99.90;;;;;;5089765;28;19928;-82
2023/06/14 01:21:06;;;;;;;;;;;15.20;99.90;;;;;;5090940;28;20015;-82
2023/06/14 01:23:32;;;;;;;;;;;15.10;99.90;;;;;;5094479;28;19932;-82
2023/06/14 01:25:58;;;;;;;;;;;15.10;99.90;;;;;;5089954;28;19935;-83
2023/06/14 01:28:26;;;;;;;;;;;15.10;99.90;;;;;;5093070;28;19927;-82
2023/06/14 01:30:53;;;;;;;;;;;15.20;99.90;;;;;;5086462;28;20002;-82
2023/06/14 01:33:20;;;;;;;;;;;15.10;99.90;;;;;;5087338;28;19928;-82
2023/06/14 01:35:48;;;;;;;;;;;15.10;99.90;;;;;;5092226;28;20294;-83
2023/06/14 01:38:14;;;;;;;;;;;15.00;99.90;;;;;;5079443;28;20022;-82
2023/06/14 01:40:42;;;;;;;;;;;14.90;99.90;;;;;;5084795;28;19985;-82
2023/06/14 01:43:08;;;;;;;;;;;14.90;99.90;;;;;;5095244;28;19935;-82
2023/06/14 01:45:34;;;;;;;;;;;14.90;99.90;;;;;;5096465;28;19980;-82
2023/06/14 01:48:00;;;;;;;;;;;14.90;99.90;;;;;;5082412;28;19924;-82
2023/06/14 01:50:32;;;;;;;;;;;14.90;99.90;;;;;;5091972;28;19982;-82
2023/06/14 01:52:58;;;;;;;;;;;14.90;99.90;;;;;;5097014;28;19928;-82
2023/06/14 01:55:24;;;;;;;;;;;14.80;99.90;;;;;;5078535;28;20430;-82
2023/06/14 01:57:50;;;;;;;;;;;14.70;99.90;;;;;;5088583;28;19924;-82
2023/06/14 02:00:18;;;;;;;;;;;14.70;99.90;;;;;;5097912;28;19927;-82
2023/06/14 02:02:44;;;;;;;;;;;14.70;99.90;;;;;;5089412;28;20010;-82
2023/06/14 02:05:10;;;;;;;;;;;14.70;99.90;;;;;;5092285;28;19955;-82
2023/06/14 02:07:36;;;;;;;;;;;14.70;99.90;;;;;;5092290;28;19930;-82
2023/06/14 02:10:02;;;;;;;;;;;14.60;99.90;;;;;;5093334;28;19927;-82
2023/06/14 02:12:27;;;;;;;;;;;14.50;99.90;;;;;;5099257;28;20007;-83
2023/06/14 02:14:54;;;;;;;;;;;14.50;99.90;;;;;;5092414;28;20011;-82
2023/06/14 02:17:19;;;;;;;;;;;14.50;99.90;;;;;;5093543;28;19935;-82
2023/06/14 02:19:45;;;;;;;;;;;14.50;99.90;;;;;;5094136;28;19928;-82
2023/06/14 02:22:10;;;;;;;;;;;14.40;99.90;;;;;;5093882;28;19934;-82
2023/06/14 02:24:36;;;;;;;;;;;14.40;99.90;;;;;;5101684;28;20014;-82
2023/06/14 02:27:01;;;;;;;;;;;14.40;99.90;;;;;;5092361;28;20339;-82
2023/06/14 02:29:27;;;;;;;;;;;14.40;99.90;;;;;;5078857;28;20304;-82
2023/06/14 02:31:53;;;;;;;;;;;14.40;99.90;;;;;;5096516;28;19956;-81
2023/06/14 02:34:19;;;;;;;;;;;14.40;99.90;;;;;;5089866;28;19928;-82
2023/06/14 02:36:45;;;;;;;;;;;14.40;99.90;;;;;;5101003;28;19928;-82
2023/06/14 02:39:11;;;;;;;;;;;14.30;99.90;;;;;;5095717;28;19930;-82
2023/06/14 02:41:36;;;;;;;;;;;14.30;99.90;;;;;;5097452;28;20281;-82
2023/06/14 02:44:02;;;;;;;;;;;14.30;99.90;;;;;;5079770;28;19932;-82
2023/06/14 02:46:28;;;;;;;;;;;14.20;99.90;;;;;;5094729;28;20376;-82
2023/06/14 02:48:53;;;;;;;;;;;14.30;99.90;;;;;;5099958;28;19928;-82
2023/06/14 02:51:19;;;;;;;;;;;14.30;99.90;;;;;;5095431;28;19930;-82
2023/06/14 02:53:44;;;;;;;;;;;14.30;99.90;;;;;;5098032;28;19924;-82
2023/06/14 02:56:11;;;;;;;;;;;14.20;99.90;;;;;;5080880;28;20003;-82
2023/06/14 02:58:37;;;;;;;;;;;14.20;99.90;;;;;;5097934;28;19978;-82
2023/06/14 03:01:02;;;;;;;;;;;14.20;99.90;;;;;;5097800;28;19971;-82
2023/06/14 03:03:28;;;;;;;;;;;14.20;99.90;;;;;;5095115;28;19930;-83
2023/06/14 03:05:54;;;;;;;;;;;14.20;99.90;;;;;;5087489;28;19932;-82
2023/06/14 03:08:20;;;;;;;;;;;14.20;99.90;;;;;;5094765;28;20010;-82
2023/06/14 03:10:46;;;;;;;;;;;14.10;99.90;;;;;;5087664;28;20040;-82
2023/06/14 03:13:11;;;;;;;;;;;14.10;99.90;;;;;;5097650;28;19924;-81
2023/06/14 03:15:38;;;;;;;;;;;14.10;99.90;;;;;;5098714;28;20411;-82
2023/06/14 03:18:04;;;;;;;;;;;14.10;99.90;;;;;;5095917;28;20029;-83
2023/06/14 03:20:32;;;;;;;;;;;14.10;99.90;;;;;;5100680;28;20322;-82
2023/06/14 03:22:59;;;;;;;;;;;14.10;99.90;;;;;;5093249;28;19924;-82
2023/06/14 03:25:25;;;;;;;;;;;14.00;99.90;;;;;;5097958;28;19924;-82
2023/06/14 03:27:51;;;;;;;;;;;14.10;99.90;;;;;;5093086;28;20477;-82
2023/06/14 03:30:17;;;;;;;;;;;14.10;99.90;;;;;;5092295;28;20284;-83
2023/06/14 03:32:42;;;;;;;;;;;14.10;99.90;;;;;;5092298;28;20420;-82
2023/06/14 03:35:08;;;;;;;;;;;14.10;99.90;;;;;;5094465;28;19934;-82
2023/06/14 03:37:34;;;;;;;;;;;14.00;99.90;;;;;;5094448;28;19928;-84
2023/06/14 03:40:00;;;;;;;;;;;14.10;99.90;;;;;;5091939;28;19958;-83
2023/06/14 03:42:26;;;;;;;;;;;14.10;99.90;;;;;;5093247;28;19927;-82
2023/06/14 03:44:51;;;;;;;;;;;14.20;99.90;;;;;;5093736;28;20297;-83
2023/06/14 03:47:17;;;;;;;;;;;14.20;99.90;;;;;;5091823;28;20486;-83
2023/06/14 03:49:42;;;;;;;;;;;14.10;99.90;;;;;;5092157;28;19927;-84
2023/06/14 03:52:08;;;;;;;;;;;14.20;99.90;;;;;;5094635;28;20326;-84
2023/06/14 03:54:34;;;;;;;;;;;14.20;99.90;;;;;;5094510;28;20087;-83
2023/06/14 03:56:59;;;;;;;;;;;14.20;99.90;;;;;;5095039;28;19962;-83
2023/06/14 03:59:25;;;;;;;;;;;14.20;99.90;;;;;;5096433;28;19928;-83
2023/06/14 04:01:51;;;;;;;;;;;14.20;99.90;;;;;;5075727;28;20034;-83
2023/06/14 04:04:17;;;;;;;;;;;14.20;99.90;;;;;;5096547;28;19934;-83
2023/06/14 04:06:42;;;;;;;;;;;14.30;99.90;;;;;;5097481;28;20106;-82
2023/06/14 04:09:08;;;;;;;;;;;14.30;99.90;;;;;;5093223;28;20028;-82
2023/06/14 04:11:33;;;;;;;;;;;14.40;99.90;;;;;;5093474;28;20047;-83
2023/06/14 04:13:59;;;;;;;;;;;14.40;99.90;;;;;;5091272;28;19969;-82
2023/06/14 04:16:25;;;;;;;;;;;14.40;99.90;;;;;;5092294;28;19928;-80
2023/06/14 04:18:52;;;;;;;;;;;14.50;99.90;;;;;;5091932;28;19977;-81
2023/06/14 04:21:18;;;;;;;;;;;14.70;99.90;;;;;;5088018;28;20023;-84
2023/06/14 04:23:43;;;;;;;;;;;14.60;99.90;;;;;;5092197;28;20003;-83
2023/06/14 04:26:10;;;;;;;;;;;14.70;99.90;;;;;;5096035;28;20495;-82
2023/06/14 04:28:40;;;;;;;;;;;14.70;99.90;;;;;;5093860;28;19932;-79
2023/06/14 04:31:08;;;;;;;;;;;14.80;99.90;;;;;;5095878;28;20438;-83
2023/06/14 04:33:42;;;;;;;;;;;14.80;99.90;;;;;;5093838;28;19931;-82
2023/06/14 04:36:17;;;;;;;;;;;14.90;99.90;;;;;;5084376;28;20022;-83
2023/06/14 04:38:44;;;;;;;;;;;15.10;99.90;;;;;;5073880;28;19932;-83
2023/06/14 04:41:11;;;;;;;;;;;15.20;99.90;;;;;;5096977;28;19924;-80
2023/06/14 04:43:37;;;;;;;;;;;17.00;99.90;;;;;;5092124;28;19928;-79
2023/06/14 04:46:10;;;;;;;;;;;17.60;99.90;;;;;;5094078;28;19932;-82
2023/06/14 04:48:36;;;;;;;;;;;19.10;99.90;;;;;;5096859;28;20388;-81
2023/06/14 04:51:03;;;;;;;;;;;19.20;99.90;;;;;;5095974;28;19955;-82
2023/06/14 04:53:29;;;;;;;;;;;19.90;99.90;;;;;;5089018;28;20680;-81
2023/06/14 04:55:55;;;;;;;;;;;20.20;99.90;;;;;;5088379;28;19924;-83
2023/06/14 04:58:20;;;;;;;;;;;21.50;99.90;;;;;;5081670;28;19938;-79
2023/06/14 05:00:46;;;;;;;;;;;21.70;99.40;;;;;;5086970;28;19954;-84
2023/06/14 05:03:12;;;;;;;;;;;22.60;98.10;;;;;;5089413;28;19936;-83
2023/06/14 05:05:39;;;;;;;;;;;22.30;98.80;;;;;;5089376;28;19924;-83
2023/06/14 05:08:05;;;;;;;;;;;23.20;96.30;;;;;;5094032;28;20377;-83
2023/06/14 05:10:31;;;;;;;;;;;22.20;97.30;;;;;;5096933;28;19928;-83
2023/06/14 05:12:56;;;;;;;;;;;22.60;95.50;;;;;;5097302;28;20017;-83
2023/06/14 05:15:25;;;;;;;;;;;21.80;96.00;;;;;;5099638;28;19931;-83
2023/06/14 05:17:54;;;;;;;;;;;22.80;95.20;;;;;;5091385;28;20309;-81
2023/06/14 05:20:21;;;;;;;;;;;23.30;95.50;;;;;;5097894;28;19976;-83
2023/06/14 05:22:47;;;;;;;;;;;22.90;94.50;;;;;;5096726;28;20517;-82
2023/06/14 05:25:13;;;;;;;;;;;22.80;95.20;;;;;;5094714;28;20100;-84
2023/06/14 05:27:41;;;;;;;;;;;22.40;95.20;;;;;;5098128;28;20058;-82
2023/06/14 05:30:07;;;;;;;;;;;22.90;94.50;;;;;;5078448;28;19927;-82
2023/06/14 05:32:32;;;;;;;;;;;22.90;95.30;;;;;;5095354;28;19935;-83
2023/06/14 05:34:58;;;;;;;;;;;23.40;95.00;;;;;;5082245;28;19928;-81
2023/06/14 05:37:23;;;;;;;;;;;21.40;94.20;;;;;;5103884;28;19943;-82
2023/06/14 05:39:49;;;;;;;;;;;22.80;95.50;;;;;;5101114;28;19931;-81
2023/06/14 05:42:14;;;;;;;;;;;23.10;93.40;;;;;;5095113;28;20010;-81
2023/06/14 05:44:40;;;;;;;;;;;22.30;94.50;;;;;;5097604;28;20369;-82
2023/06/14 05:47:06;;;;;;;;;;;21.70;95.20;;;;;;5095825;28;19931;-82
2023/06/14 05:49:31;;;;;;;;;;;20.80;95.40;;;;;;5095957;28;19924;-83
2023/06/14 05:51:57;;;;;;;;;;;20.20;96.20;;;;;;5101638;28;20018;-80
2023/06/14 05:54:22;;;;;;;;;;;19.40;96.50;;;;;;5100720;28;19950;-81
2023/06/14 05:56:48;;;;;;;;;;;19.50;98.10;;;;;;5098317;28;19935;-85
2023/06/14 05:59:13;;;;;;;;;;;19.70;98.90;;;;;;5099228;28;19932;-81
2023/06/14 06:01:40;;;;;;;;;;;19.50;98.30;;;;;;5096356;27;19931;-82
2023/06/14 06:04:06;;;;;;;;;;;20.20;98.80;;;;;;5101138;28;19928;-82
2023/06/14 06:06:32;;;;;;;;;;;19.90;97.60;;;;;;5099774;28;19928;-82
2023/06/14 06:08:58;;;;;;;;;;;19.90;99.00;;;;;;5098517;28;19973;-82
2023/06/14 06:11:23;;;;;;;;;;;20.10;98.10;;;;;;5099635;28;19932;-81
2023/06/14 06:13:49;;;;;;;;;;;20.00;97.70;;;;;;5096089;28;19924;-83
2023/06/14 06:16:15;;;;;;;;;;;20.30;98.40;;;;;;5096390;28;20363;-80
2023/06/14 06:18:40;;;;;;;;;;;20.10;97.20;;;;;;5099852;28;19932;-82
2023/06/14 06:21:06;;;;;;;;;;;20.10;97.60;;;;;;5096885;28;20274;-81
2023/06/14 06:23:31;;;;;;;;;;;20.00;98.10;;;;;;5092663;28;19927;-82
2023/06/14 06:25:57;;;;;;;;;;;20.50;98.20;;;;;;5096813;28;19928;-80
2023/06/14 06:28:25;;;;;;;;;;;21.00;95.30;;;;;;5081176;28;19977;-79
2023/06/14 06:30:51;;;;;;;;;;;20.10;95.70;;;;;;5099289;28;19927;-81
2023/06/14 06:33:17;;;;;;;;;;;20.90;96.60;;;;;;5097559;28;19935;-80
2023/06/14 06:35:42;;;;;;;;;;;20.40;97.90;;;;;;5093091;28;19935;-81
2023/06/14 06:38:09;;;;;;;;;;;20.30;95.70;;;;;;5099029;28;20345;-82
2023/06/14 06:40:35;;;;;;;;;;;20.70;96.60;;;;;;5098235;28;19967;-83
2023/06/14 06:43:02;;;;;;;;;;;20.80;96.70;;;;;;5096881;28;19963;-81
2023/06/14 06:45:28;;;;;;;;;;;20.40;95.60;;;;;;5098474;28;20353;-81
2023/06/14 06:47:53;;;;;;;;;;;20.90;95.60;;;;;;5097997;28;20026;-83
2023/06/14 06:50:19;;;;;;;;;;;21.00;96.00;;;;;;5096647;28;19938;-82
2023/06/14 06:52:45;;;;;;;;;;;21.00;96.20;;;;;;5098647;28;20395;-81
2023/06/14 06:55:11;;;;;;;;;;;20.90;96.20;;;;;;5097620;28;19931;-83
2023/06/14 06:57:36;;;;;;;;;;;21.70;97.10;;;;;;5099145;28;20043;-82
2023/06/14 07:00:05;;;;;;;;;;;22.60;95.60;;;;;;5097107;28;20016;-80
2023/06/14 07:02:31;;;;;;;;;;;21.90;94.60;;;;;;5094123;28;19931;-82
2023/06/14 07:04:56;;;;;;;;;;;21.50;94.90;;;;;;5098723;28;19927;-83
2023/06/14 07:07:22;;;;;;;;;;;21.80;93.80;;;;;;5096316;28;19931;-83
2023/06/14 07:09:47;;;;;;;;;;;21.40;95.10;;;;;;5097871;28;19927;-83
2023/06/14 07:12:13;;;;;;;;;;;21.10;94.90;;;;;;5095625;28;19944;-82
2023/06/14 07:14:38;;;;;;;;;;;21.20;94.60;;;;;;5096877;28;19929;-84
2023/06/14 07:17:04;;;;;;;;;;;21.80;95.30;;;;;;5089010;28;20399;-82
2023/06/14 07:19:31;;;;;;;;;;;21.80;95.10;;;;;;5095626;28;20293;-81
2023/06/14 07:21:58;;;;;;;;;;;21.30;93.70;;;;;;5099447;28;19942;-81
2023/06/14 07:24:23;;;;;;;;;;;21.90;94.60;;;;;;5094426;28;19928;-81
2023/06/14 07:26:49;;;;;;;;;;;21.00;93.20;;;;;;5096124;28;20491;-82
2023/06/14 07:29:14;;;;;;;;;;;21.70;94.40;;;;;;5091191;28;20011;-82
2023/06/14 07:31:40;;;;;;;;;;;22.10;93.40;;;;;;5095591;28;20341;-81
2023/06/14 07:34:06;;;;;;;;;;;21.30;93.30;;;;;;5098110;28;20439;-84
2023/06/14 07:36:31;;;;;;;;;;;21.70;92.50;;;;;;5095748;28;19947;-81
2023/06/14 07:38:57;;;;;;;;;;;21.90;92.40;;;;;;5096483;28;20350;-81
2023/06/14 07:41:22;;;;;;;;;;;21.70;92.30;;;;;;5100473;28;19924;-82
2023/06/14 07:43:48;;;;;;;;;;;21.50;92.90;;;;;;5099000;28;20018;-81
2023/06/14 07:46:14;;;;;;;;;;;22.00;93.30;;;;;;5101063;28;20018;-81
2023/06/14 07:48:40;;;;;;;;;;;22.50;92.20;;;;;;5098609;28;19935;-83
2023/06/14 07:51:05;;;;;;;;;;;23.00;92.60;;;;;;5081078;28;19927;-84
2023/06/14 07:53:31;;;;;;;;;;;23.20;90.90;;;;;;5099708;28;19924;-84
2023/06/14 07:55:57;;;;;;;;;;;22.40;89.40;;;;;;5093011;28;19970;-85
2023/06/14 07:58:22;;;;;;;;;;;23.00;90.00;;;;;;5097842;28;19927;-83
2023/06/14 08:00:48;;;;;;;;;;;23.10;90.30;;;;;;5099366;28;19928;-81
2023/06/14 08:03:14;;;;;;;;;;;23.20;89.00;;;;;;5085671;28;20089;-82
2023/06/14 08:05:39;;;;;;;;;;;22.60;87.40;;;;;;5088618;28;19939;-81
2023/06/14 08:08:05;;;;;;;;;;;22.80;90.70;;;;;;5085472;28;19924;-81
2023/06/14 08:10:30;;;;;;;;;;;22.40;89.50;;;;;;5080380;28;19927;-81
2023/06/14 08:12:56;;;;;;;;;;;22.40;91.00;;;;;;5092789;28;19928;-81
2023/06/14 08:15:21;;;;;;;;;;;22.30;90.00;;;;;;5094512;28;19935;-83
2023/06/14 08:17:47;;;;;;;;;;;23.10;90.70;;;;;;5096976;28;19928;-82
2023/06/14 08:20:13;;;;;;;;;;;23.00;90.00;;;;;;5091009;28;19932;-84
2023/06/14 08:22:42;;;;;;;;;;;22.40;86.10;;;;;;5095613;28;20387;-80
2023/06/14 08:25:08;;;;;;;;;;;22.80;88.80;;;;;;5094976;28;19927;-81
2023/06/14 08:27:34;;;;;;;;;;;22.80;88.70;;;;;;5089699;28;20282;-81
2023/06/14 08:30:00;;;;;;;;;;;22.50;85.20;;;;;;5092426;28;19981;-81
2023/06/14 08:32:25;;;;;;;;;;;22.20;85.30;;;;;;5096508;28;19934;-82
2023/06/14 08:34:51;;;;;;;;;;;22.30;89.40;;;;;;5095016;28;20456;-81
2023/06/14 08:37:16;;;;;;;;;;;22.40;88.20;;;;;;5097062;28;19951;-82
2023/06/14 08:39:43;;;;;;;;;;;23.10;87.60;;;;;;5096247;28;20010;-82
2023/06/14 08:42:10;;;;;;;;;;;23.50;88.00;;;;;;5097427;28;19928;-83
2023/06/14 08:44:36;;;;;;;;;;;23.00;86.20;;;;;;5096395;28;19931;-81
2023/06/14 08:47:03;;;;;;;;;;;23.20;87.20;;;;;;5097554;28;19928;-80
2023/06/14 08:49:29;;;;;;;;;;;23.60;87.90;;;;;;5101444;28;19923;-81
2023/06/14 08:52:00;;;;;;;;;;;22.70;86.20;;;;;;5098656;28;19944;-81
2023/06/14 08:54:28;;;;;;;;;;;22.60;88.30;;;;;;5101895;28;20400;-82
2023/06/14 08:56:57;;;;;;;;;;;23.10;88.20;;;;;;5098580;28;20062;-81
2023/06/14 08:59:24;;;;;;;;;;;23.00;86.00;;;;;;5100653;28;19931;-82
2023/06/14 09:01:52;;;;;;;;;;;23.10;84.40;;;;;;5096975;28;20301;-81
2023/06/14 09:04:19;;;;;;;;;;;22.60;83.20;;;;;;5099960;28;19971;-82
2023/06/14 09:06:45;;;;;;;;;;;23.40;84.20;;;;;;5103164;28;19928;-85
2023/06/14 09:09:12;;;;;;;;;;;23.40;83.90;;;;;;5104651;28;20007;-81
2023/06/14 09:11:37;;;;;;;;;;;23.50;83.30;;;;;;5102412;28;19931;-83
2023/06/14 09:14:04;;;;;;;;;;;23.80;85.60;;;;;;5101615;28;19928;-81
2023/06/14 09:16:32;;;;;;;;;;;24.00;82.30;;;;;;5100858;28;19930;-85
2023/06/14 09:18:57;;;;;;;;;;;23.90;83.00;;;;;;5101656;28;19935;-82
2023/06/14 09:21:23;;;;;;;;;;;23.10;82.30;;;;;;5102410;28;19936;-81
2023/06/14 09:23:49;;;;;;;;;;;22.80;81.70;;;;;;5097285;28;20313;-81
2023/06/14 09:26:19;;;;;;;;;;;23.30;86.10;;;;;;5100233;28;19924;-82
2023/06/14 09:28:45;;;;;;;;;;;23.10;81.60;;;;;;5086417;28;19935;-81
2023/06/14 09:31:12;;;;;;;;;;;22.80;82.00;;;;;;5101323;28;20360;-85
2023/06/14 09:33:37;;;;;;;;;;;23.10;82.70;;;;;;5081193;28;19934;-83
2023/06/14 09:36:03;;;;;;;;;;;24.30;85.90;;;;;;5102752;28;19927;-82
2023/06/14 09:38:29;;;;;;;;;;;24.20;81.50;;;;;;5096525;28;19924;-81
2023/06/14 09:40:58;;;;;;;;;;;24.70;83.70;;;;;;5102408;28;19949;-82
2023/06/14 09:43:25;;;;;;;;;;;24.60;81.50;;;;;;5098365;28;20563;-83
2023/06/14 09:45:51;;;;;;;;;;;24.30;81.40;;;;;;5102127;28;20000;-84
2023/06/14 09:48:17;;;;;;;;;;;24.70;79.90;;;;;;5096504;28;19928;-83
2023/06/14 09:50:44;;;;;;;;;;;23.90;77.90;;;;;;5100017;28;19934;-82
2023/06/14 09:53:10;;;;;;;;;;;24.30;80.20;;;;;;5097720;27;19946;-82
2023/06/14 09:55:37;;;;;;;;;;;23.80;79.40;;;;;;5098635;28;19924;-80
2023/06/14 09:58:07;;;;;;;;;;;24.60;82.90;;;;;;5100945;28;20544;-86
2023/06/14 10:00:34;;;;;;;;;;;24.20;80.30;;;;;;5100674;28;19927;-82
2023/06/14 10:03:11;;;;;;;;;;;24.20;77.50;;;;;;5101869;28;19924;-82
2023/06/14 10:05:36;;;;;;;;;;;24.40;82.50;;;;;;5099279;28;19931;-83
2023/06/14 10:08:04;;;;;;;;;;;24.30;78.00;;;;;;5101057;28;19930;-82
2023/06/14 10:10:30;;;;;;;;;;;24.40;75.90;;;;;;5102853;28;19932;-81
2023/06/14 10:12:56;;;;;;;;;;;24.50;78.90;;;;;;5103275;28;19934;-83
2023/06/14 10:15:35;;;;;;;;;;;24.30;77.70;;;;;;5102359;28;19927;-83
2023/06/14 10:18:09;;;;;;;;;;;24.00;75.60;;;;;;5098050;28;20320;-82
2023/06/14 10:20:39;;;;;;;;;;;24.00;75.90;;;;;;5101767;28;19928;-81
2023/06/14 10:23:24;;;;;;;;;;;23.40;76.50;;;;;;5101415;28;19979;-82
2023/06/14 10:25:50;;;;;;;;;;;24.10;79.00;;;;;;5091948;28;20377;-84
2023/06/14 10:28:22;;;;;;;;;;;24.00;76.50;;;;;;5086384;28;20442;-82
2023/06/14 10:31:17;;;;;;;;;;;24.60;78.60;;;;;;5100376;28;19924;-81
2023/06/14 10:33:52;;;;;;;;;;;24.30;77.70;;;;;;5069142;28;19928;-83
2023/06/14 10:36:26;;;;;;;;;;;23.80;75.80;;;;;;5100380;28;19932;-83
2023/06/14 10:38:58;;;;;;;;;;;24.20;76.10;;;;;;5081293;28;19934;-83
2023/06/14 10:41:27;;;;;;;;;;;24.40;79.50;;;;;;5094106;28;19932;-82
2023/06/14 10:43:53;;;;;;;;;;;23.40;75.90;;;;;;5097546;28;19924;-83
2023/06/14 10:46:22;;;;;;;;;;;24.10;78.90;;;;;;5081016;28;19932;-81
2023/06/14 10:48:48;;;;;;;;;;;24.80;79.60;;;;;;5098895;28;19939;-81
2023/06/14 10:51:20;;;;;;;;;;;24.00;76.00;;;;;;5098936;28;20089;-82
2023/06/14 10:53:49;;;;;;;;;;;24.60;75.70;;;;;;5094267;28;20285;-83
2023/06/14 10:56:27;;;;;;;;;;;23.90;74.50;;;;;;5090175;28;19931;-86
2023/06/14 10:58:52;;;;;;;;;;;23.60;74.60;;;;;;5077918;28;19984;-84
2023/06/14 11:01:28;;;;;;;;;;;23.80;75.80;;;;;;5091025;28;20369;-82
2023/06/14 11:03:53;;;;;;;;;;;24.00;77.20;;;;;;5098012;28;19984;-84
2023/06/14 11:06:23;;;;;;;;;;;24.90;79.30;;;;;;5086234;28;19931;-84
2023/06/14 11:08:52;;;;;;;;;;;24.60;75.40;;;;;;5099169;28;19975;-83
2023/06/14 11:11:18;;;;;;;;;;;24.30;79.60;;;;;;5079860;28;19932;-81
2023/06/14 11:13:46;;;;;;;;;;;24.40;78.80;;;;;;5094563;28;19938;-81
2023/06/14 11:16:16;;;;;;;;;;;23.80;75.70;;;;;;5097078;28;20002;-82
2023/06/14 11:18:42;;;;;;;;;;;24.30;78.20;;;;;;5097433;28;19966;-85
2023/06/14 11:21:08;;;;;;;;;;;24.70;78.00;;;;;;5094322;28;19928;-81
2023/06/14 11:23:34;;;;;;;;;;;24.50;79.40;;;;;;5098644;28;19939;-81
2023/06/14 11:26:00;;;;;;;;;;;24.30;75.40;;;;;;5097901;28;19931;-82
2023/06/14 11:28:35;;;;;;;;;;;24.60;78.30;;;;;;5095767;28;19935;-84
2023/06/14 11:31:01;;;;;;;;;;;24.80;77.10;;;;;;5097454;28;20683;-81
2023/06/14 11:33:27;;;;;;;;;;;24.60;77.50;;;;;;5097246;28;20392;-82
2023/06/14 11:35:53;;;;;;;;;;;25.00;78.80;;;;;;5097558;28;19945;-82
2023/06/14 11:38:18;;;;;;;;;;;24.30;76.50;;;;;;5100827;28;20546;-83
2023/06/14 11:40:44;;;;;;;;;;;24.90;78.70;;;;;;5095782;28;19936;-81
2023/06/14 11:43:09;;;;;;;;;;;24.50;80.10;;;;;;5099444;28;19928;-82
2023/06/14 11:45:35;;;;;;;;;;;24.90;78.90;;;;;;5099119;28;19924;-80
2023/06/14 11:48:01;;;;;;;;;;;24.90;76.20;;;;;;5098726;28;19924;-81
2023/06/14 11:50:27;;;;;;;;;;;24.90;78.80;;;;;;5094585;28;19971;-83
2023/06/14 11:52:56;;;;;;;;;;;25.80;78.70;;;;;;5096906;28;19931;-81
2023/06/14 11:55:23;;;;;;;;;;;24.60;76.30;;;;;;5098463;28;19933;-82
2023/06/14 11:57:49;;;;;;;;;;;24.80;79.30;;;;;;5097352;28;19927;-81
2023/06/14 12:00:15;;;;;;;;;;;25.00;78.90;;;;;;5094617;28;19924;-82
2023/06/14 12:02:41;;;;;;;;;;;25.10;78.00;;;;;;5097940;28;19988;-84
2023/06/14 12:05:10;;;;;;;;;;;25.00;75.10;;;;;;5098623;28;19971;-82
2023/06/14 12:07:36;;;;;;;;;;;25.20;79.60;;;;;;5093674;28;19931;-83
2023/06/14 12:10:02;;;;;;;;;;;24.50;75.00;;;;;;5101004;28;19932;-84
2023/06/14 12:12:29;;;;;;;;;;;24.70;80.00;;;;;;5092893;28;20448;-83
2023/06/14 12:14:57;;;;;;;;;;;25.10;77.50;;;;;;5096099;28;19975;-84
2023/06/14 12:17:23;;;;;;;;;;;24.90;75.40;;;;;;5096594;28;19935;-82
2023/06/14 12:19:49;;;;;;;;;;;24.40;75.80;;;;;;5100571;28;20290;-82
2023/06/14 12:22:15;;;;;;;;;;;25.20;76.90;;;;;;5081514;28;19943;-81
2023/06/14 12:24:44;;;;;;;;;;;25.50;77.20;;;;;;5103195;28;19935;-83
2023/06/14 12:27:15;;;;;;;;;;;25.10;76.80;;;;;;5102098;28;20303;-82
2023/06/14 12:29:43;;;;;;;;;;;25.30;79.70;;;;;;5103836;28;20546;-82
2023/06/14 12:32:09;;;;;;;;;;;25.30;75.40;;;;;;5101426;28;20416;-81
2023/06/14 12:34:35;;;;;;;;;;;24.90;76.80;;;;;;5100245;28;19928;-82
2023/06/14 12:37:01;;;;;;;;;;;24.60;76.20;;;;;;5104772;28;19939;-81
2023/06/14 12:39:27;;;;;;;;;;;25.30;76.30;;;;;;5105298;28;19924;-84
2023/06/14 12:41:53;;;;;;;;;;;24.90;75.00;;;;;;5099282;28;19927;-84
2023/06/14 12:44:19;;;;;;;;;;;25.50;79.00;;;;;;5100421;28;19935;-82
2023/06/14 12:46:45;;;;;;;;;;;25.20;76.20;;;;;;5076952;28;19928;-84
2023/06/14 12:49:11;;;;;;;;;;;25.60;76.60;;;;;;5103331;28;19931;-83
2023/06/14 12:51:37;;;;;;;;;;;25.50;77.90;;;;;;5097016;28;19976;-83
2023/06/14 12:54:03;;;;;;;;;;;24.90;76.50;;;;;;5099698;28;20036;-83
2023/06/14 12:56:28;;;;;;;;;;;25.00;78.30;;;;;;5103734;28;19924;-85
2023/06/14 12:58:54;;;;;;;;;;;25.40;77.10;;;;;;5097440;28;20018;-84
2023/06/14 13:01:19;;;;;;;;;;;25.00;76.40;;;;;;5101502;28;19934;-82
2023/06/14 13:03:49;;;;;;;;;;;25.20;76.00;;;;;;5100612;28;19959;-84
2023/06/14 13:06:15;;;;;;;;;;;25.60;78.60;;;;;;5102554;28;19928;-81
2023/06/14 13:08:40;;;;;;;;;;;25.60;80.10;;;;;;5098313;28;20395;-83
2023/06/14 13:11:06;;;;;;;;;;;25.30;74.60;;;;;;5084823;28;20357;-82
2023/06/14 13:13:31;;;;;;;;;;;25.40;78.10;;;;;;5095762;28;20683;-83
2023/06/14 13:15:57;;;;;;;;;;;25.10;74.90;;;;;;5103410;28;20380;-82
2023/06/14 13:18:22;;;;;;;;;;;24.90;76.00;;;;;;5097653;28;20479;-83
2023/06/14 13:20:48;;;;;;;;;;;25.70;78.10;;;;;;5101993;28;20739;-82
2023/06/14 13:23:15;;;;;;;;;;;25.30;78.30;;;;;;5103001;28;20033;-84
2023/06/14 13:25:41;;;;;;;;;;;26.10;75.80;;;;;;5100726;28;19932;-82
2023/06/14 13:28:06;;;;;;;;;;;25.60;75.80;;;;;;5097020;28;20018;-86
2023/06/14 13:30:32;;;;;;;;;;;24.70;74.00;;;;;;5096920;28;20536;-83
2023/06/14 13:32:58;;;;;;;;;;;24.50;75.40;;;;;;5103664;28;20300;-83
2023/06/14 13:35:24;;;;;;;;;;;25.30;76.50;;;;;;5099115;28;19932;-83
2023/06/14 13:37:50;;;;;;;;;;;25.70;76.60;;;;;;5096578;28;19971;-82
2023/06/14 13:40:15;;;;;;;;;;;26.00;75.10;;;;;;5095798;28;20062;-83
2023/06/14 13:42:41;;;;;;;;;;;25.70;75.80;;;;;;5105094;27;19934;-81
2023/06/14 13:45:07;;;;;;;;;;;25.70;76.20;;;;;;5101949;28;20519;-81
2023/06/14 13:47:32;;;;;;;;;;;25.90;77.00;;;;;;5100209;28;19931;-83
2023/06/14 13:49:58;;;;;;;;;;;25.80;75.80;;;;;;5091591;28;20033;-82
2023/06/14 13:52:24;;;;;;;;;;;25.20;76.10;;;;;;5101986;28;20050;-82
2023/06/14 13:54:49;;;;;;;;;;;25.10;75.20;;;;;;5100696;28;20022;-82
2023/06/14 13:57:15;;;;;;;;;;;25.40;73.60;;;;;;5099831;28;20055;-85
2023/06/14 13:59:41;;;;;;;;;;;25.50;76.00;;;;;;5094401;28;20001;-82
2023/06/14 14:02:07;;;;;;;;;;;25.30;75.40;;;;;;5098201;28;19985;-82
2023/06/14 14:04:33;;;;;;;;;;;25.40;74.80;;;;;;5099982;28;19932;-84
2023/06/14 14:06:58;;;;;;;;;;;26.10;76.50;;;;;;5096867;28;20003;-81
2023/06/14 14:09:24;;;;;;;;;;;25.90;75.50;;;;;;5098759;28;20022;-84
2023/06/14 14:11:49;;;;;;;;;;;25.20;75.50;;;;;;5082107;28;20002;-82